createdAt,value
2022-08-07T00:10:04.664Z,83.57
2022-08-07T00:20:10.717Z,84.44
2022-08-07T00:30:21.611Z,84.45
2022-08-07T00:40:39.044Z,83.89
2022-08-07T00:50:46.355Z,83.64
2022-08-07T01:00:53.697Z,84.10
2022-08-07T01:10:56.731Z,84.96
2022-08-07T01:21:22.843Z,85.62
2022-08-07T01:31:41.867Z,84.19
2022-08-07T01:42:07.333Z,85.47
2022-08-07T01:52:10.603Z,85.12
2022-08-07T02:02:33.039Z,85.32
2022-08-07T02:12:50.154Z,85.84
2022-08-07T02:22:59.751Z,85.43
2022-08-07T02:33:09.499Z,85.54
2022-08-07T02:43:13.060Z,84.88
2022-08-07T02:53:21.697Z,85.09
2022-08-07T03:03:49.276Z,84.28
2022-08-07T03:13:57.620Z,84.98
2022-08-07T03:24:19.307Z,85.05
2022-08-07T03:34:28.030Z,84.92
2022-08-07T03:44:34.511Z,83.91
2022-08-07T03:54:54.939Z,82.79
2022-08-07T04:04:58.934Z,80.57
2022-08-07T04:15:02.025Z,79.93
2022-08-07T04:25:08.787Z,80.18
2022-08-07T04:35:14.506Z,80.70
2022-08-07T04:45:22.435Z,81.13
2022-08-07T04:58:12.231Z,80.41
2022-08-07T05:06:19.110Z,79.67
2022-08-07T05:16:23.000Z,76.22
2022-08-07T05:26:28.194Z,73.09
2022-08-07T05:36:35.431Z,70.75
2022-08-07T05:46:39.019Z,66.79
2022-08-07T05:56:42.020Z,66.89
2022-08-07T06:06:46.111Z,63.07
2022-08-07T06:16:56.402Z,60.80
2022-08-07T06:26:59.470Z,58.95
2022-08-07T06:37:05.703Z,57.40
2022-08-07T06:47:10.402Z,54.70
2022-08-07T06:57:18.653Z,56.11
2022-08-07T07:07:59.622Z,54.18
2022-08-07T07:18:33.105Z,52.86
2022-08-07T07:29:39.390Z,49.47
2022-08-07T07:39:25.467Z,50.13
2022-08-07T07:50:33.756Z,49.30
2022-08-07T07:59:54.941Z,48.65
2022-08-07T08:10:05.443Z,47.28
2022-08-07T08:20:16.942Z,45.61
2022-08-07T08:30:26.001Z,44.68
2022-08-07T08:40:38.820Z,44.03
2022-08-07T08:50:56.409Z,45.84
2022-08-07T09:01:39.808Z,50.73
2022-08-07T09:12:00.702Z,43.13
2022-08-07T09:24:27.342Z,42.90
2022-08-07T09:33:16.666Z,42.94
2022-08-07T09:43:40.320Z,43.36
2022-08-07T09:54:02.612Z,48.39
2022-08-07T10:04:53.303Z,49.36
2022-08-07T10:15:15.116Z,65.27
2022-08-07T10:25:55.365Z,68.92
2022-08-07T10:36:29.726Z,71.13
2022-08-07T10:46:59.064Z,74.98
2022-08-07T10:57:34.739Z,70.19
2022-08-07T11:08:12.739Z,70.32
2022-08-07T11:18:33.490Z,70.16
2022-08-07T11:28:43.099Z,71.15
2022-08-07T11:39:14.514Z,76.32
2022-08-07T11:50:25.510Z,74.73
2022-08-07T12:00:18.953Z,73.32
2022-08-07T12:10:35.226Z,72.36
2022-08-07T12:20:49.322Z,72.25
2022-08-07T12:30:54.603Z,71.30
2022-08-07T12:41:01.103Z,72.89
2022-08-07T12:51:13.031Z,71.16
2022-08-07T13:01:40.526Z,76.55
2022-08-07T13:12:28.561Z,73.78
2022-08-07T13:22:37.955Z,75.03
2022-08-07T13:33:16.361Z,75.78
2022-08-07T13:43:35.516Z,79.19
2022-08-07T13:53:59.422Z,80.41
2022-08-07T14:04:09.975Z,81.33
2022-08-07T14:14:15.705Z,82.95
2022-08-07T14:24:42.324Z,84.32
2022-08-07T14:34:48.909Z,87.48
2022-08-07T14:45:21.370Z,89.21
2022-08-07T14:55:31.822Z,89.62
2022-08-07T15:05:34.626Z,91.64
2022-08-07T15:15:40.828Z,90.92
2022-08-07T15:25:56.950Z,90.09
2022-08-07T15:36:05.418Z,89.41
2022-08-07T15:46:32.284Z,87.51
2022-08-07T15:56:42.736Z,91.69
2022-08-07T16:06:54.342Z,89.56
2022-08-07T16:17:14.972Z,88.28
2022-08-07T16:27:40.565Z,87.29
2022-08-07T16:38:29.585Z,89.10
2022-08-07T16:50:28.884Z,89.08
2022-08-07T16:59:24.996Z,90.02
2022-08-07T17:10:06.620Z,91.13
2022-08-07T17:20:32.875Z,93.27
2022-08-07T17:30:57.849Z,94.04
2022-08-07T17:42:01.077Z,94.40
2022-08-07T17:52:04.448Z,95.07
2022-08-07T18:02:25.796Z,94.34
2022-08-07T18:13:01.495Z,93.28
2022-08-07T18:23:42.265Z,93.22
2022-08-07T18:33:54.889Z,93.57
2022-08-07T18:44:12.071Z,94.00
2022-08-07T18:54:30.561Z,92.88
2022-08-07T19:04:57.727Z,93.31
2022-08-07T19:16:02.479Z,92.79
2022-08-07T19:26:24.929Z,93.05
2022-08-07T19:36:04.305Z,93.59
2022-08-07T19:46:10.569Z,93.71
2022-08-07T19:57:52.391Z,93.13
2022-08-07T20:06:37.089Z,92.96
2022-08-07T20:16:54.334Z,93.35
2022-08-07T20:27:01.930Z,92.79
2022-08-07T20:37:06.060Z,93.16
2022-08-07T20:47:12.436Z,93.15
2022-08-07T20:57:17.518Z,93.55
2022-08-07T21:07:26.766Z,93.92
2022-08-07T21:18:03.404Z,95.21
2022-08-07T21:28:18.832Z,96.00
2022-08-07T21:38:28.920Z,97.29
2022-08-07T21:48:56.621Z,97.29
2022-08-07T21:59:29.758Z,99.38
2022-08-07T22:09:38.156Z,98.36
2022-08-07T22:20:04.042Z,98.77
2022-08-07T22:30:05.804Z,98.17
2022-08-07T22:40:33.111Z,99.17
2022-08-07T22:50:53.417Z,97.58
2022-08-07T23:01:15.260Z,97.77
2022-08-07T23:11:29.340Z,97.93
2022-08-07T23:21:51.875Z,99.88
2022-08-07T23:34:20.636Z,98.71
2022-08-07T23:42:55.988Z,97.81
2022-08-07T23:53:08.381Z,97.91
